createdAt,value
2023-01-28T00:00:12.176Z,100.00
2023-01-28T00:02:57.338Z,100.00
2023-01-28T00:05:42.643Z,100.00
2023-01-28T00:08:27.861Z,100.00
2023-01-28T00:11:13.663Z,100.00
2023-01-28T00:13:58.546Z,100.00
2023-01-28T00:16:43.712Z,100.00
2023-01-28T00:19:28.975Z,100.00
2023-01-28T00:22:14.048Z,100.00
2023-01-28T00:24:59.288Z,100.00
2023-01-28T00:27:45.209Z,100.00
2023-01-28T00:30:30.488Z,100.00
2023-01-28T00:33:15.563Z,100.00
2023-01-28T00:36:01.842Z,100.00
2023-01-28T00:38:59.526Z,100.00
2023-01-28T00:41:44.604Z,100.00
2023-01-28T00:44:29.562Z,100.00
2023-01-28T00:47:14.434Z,100.00
2023-01-28T00:49:59.395Z,100.00
2023-01-28T00:52:44.632Z,100.00
2023-01-28T00:55:29.861Z,100.00
2023-01-28T00:58:15.243Z,100.00
2023-01-28T01:01:11.393Z,100.00
2023-01-28T01:04:05.664Z,100.00
2023-01-28T01:06:50.867Z,100.00
2023-01-28T01:09:35.773Z,100.00
2023-01-28T01:12:20.771Z,100.00
2023-01-28T01:15:10.256Z,100.00
2023-01-28T01:17:55.232Z,100.00
2023-01-28T01:20:45.499Z,100.00
2023-01-28T01:23:31.463Z,100.00
2023-01-28T01:26:16.573Z,100.00
2023-01-28T01:29:01.827Z,100.00
2023-01-28T01:31:46.851Z,100.00
2023-01-28T01:34:31.677Z,100.00
2023-01-28T01:37:16.745Z,100.00
2023-01-28T01:40:03.171Z,100.00
2023-01-28T01:42:48.443Z,100.00
2023-01-28T01:45:35.119Z,100.00
2023-01-28T01:48:25.533Z,100.00
2023-01-28T01:51:14.611Z,100.00
2023-01-28T01:54:00.267Z,100.00
2023-01-28T01:56:49.044Z,100.00
2023-01-28T01:59:36.119Z,100.00
2023-01-28T02:02:21.889Z,100.00
2023-01-28T02:05:13.547Z,100.00
2023-01-28T02:08:19.048Z,100.00
2023-01-28T02:11:08.659Z,100.00
2023-01-28T02:13:57.330Z,100.00
2023-01-28T02:16:42.783Z,100.00
2023-01-28T02:19:33.906Z,100.00
2023-01-28T02:22:37.646Z,100.00
2023-01-28T02:26:00.206Z,100.00
2023-01-28T02:28:59.034Z,100.00
2023-01-28T02:31:57.652Z,100.00
2023-01-28T02:34:47.996Z,100.00
2023-01-28T02:37:53.476Z,100.00
2023-01-28T02:41:02.021Z,100.00
2023-01-28T02:43:47.666Z,100.00
2023-01-28T02:46:55.247Z,100.00
2023-01-28T02:49:49.963Z,100.00
2023-01-28T02:52:56.356Z,100.00
2023-01-28T02:55:56.838Z,100.00
2023-01-28T02:59:30.943Z,100.00
2023-01-28T03:02:28.620Z,100.00
2023-01-28T03:05:35.244Z,100.00
2023-01-28T03:08:39.160Z,100.00
2023-01-28T03:11:44.601Z,100.00
2023-01-28T03:14:51.066Z,100.00
2023-01-28T03:18:14.072Z,100.00
2023-01-28T03:21:29.470Z,100.00
2023-01-28T03:24:42.278Z,100.00
2023-01-28T03:28:15.180Z,100.00
2023-01-28T03:31:25.633Z,100.00
2023-01-28T03:34:30.176Z,100.00
2023-01-28T03:37:15.448Z,100.00
2023-01-28T03:40:06.277Z,100.00
2023-01-28T03:42:52.374Z,100.00
2023-01-28T03:45:39.078Z,100.00
2023-01-28T03:48:25.905Z,100.00
2023-01-28T03:51:11.151Z,100.00
2023-01-28T03:53:56.459Z,100.00
2023-01-28T03:56:41.763Z,100.00
2023-01-28T03:59:26.975Z,100.00
2023-01-28T04:02:12.905Z,100.00
2023-01-28T04:04:58.964Z,100.00
2023-01-28T04:07:44.294Z,100.00
2023-01-28T04:10:29.527Z,100.00
2023-01-28T04:13:14.477Z,100.00
2023-01-28T04:16:03.480Z,100.00
2023-01-28T04:18:49.019Z,100.00
2023-01-28T04:21:34.699Z,100.00
2023-01-28T04:24:20.574Z,100.00
2023-01-28T04:27:05.431Z,100.00
2023-01-28T04:29:51.169Z,100.00
2023-01-28T04:32:36.235Z,100.00
2023-01-28T04:35:21.107Z,100.00
2023-01-28T04:38:06.556Z,100.00
2023-01-28T04:40:52.816Z,100.00
2023-01-28T04:43:37.823Z,100.00
2023-01-28T04:46:23.389Z,100.00
2023-01-28T04:49:08.660Z,100.00
2023-01-28T04:51:53.697Z,100.00
2023-01-28T04:54:38.973Z,100.00
2023-01-28T04:57:24.080Z,100.00
2023-01-28T05:00:10.043Z,100.00
2023-01-28T05:02:54.961Z,100.00
2023-01-28T05:05:40.042Z,100.00
2023-01-28T05:08:25.279Z,100.00
2023-01-28T05:11:10.216Z,100.00
2023-01-28T05:13:55.331Z,100.00
2023-01-28T05:16:40.255Z,100.00
2023-01-28T05:19:25.419Z,100.00
2023-01-28T05:22:10.356Z,100.00
2023-01-28T05:24:55.776Z,100.00
2023-01-28T05:27:41.006Z,100.00
2023-01-28T05:30:26.439Z,100.00
2023-01-28T05:33:11.862Z,100.00
2023-01-28T05:35:57.007Z,100.00
2023-01-28T05:38:41.994Z,100.00
2023-01-28T05:41:27.006Z,100.00
2023-01-28T05:44:12.515Z,100.00
2023-01-28T05:46:57.753Z,100.00
2023-01-28T05:49:42.616Z,100.00
2023-01-28T05:52:27.591Z,100.00
2023-01-28T05:55:12.702Z,100.00
2023-01-28T05:57:57.995Z,100.00
2023-01-28T06:00:43.385Z,100.00
2023-01-28T06:03:28.695Z,100.00
2023-01-28T06:06:13.673Z,100.00
2023-01-28T06:08:59.039Z,100.00
2023-01-28T06:11:45.574Z,100.00
2023-01-28T06:14:30.391Z,100.00
2023-01-28T06:17:15.836Z,100.00
2023-01-28T06:20:01.039Z,100.00
2023-01-28T06:22:46.143Z,100.00
2023-01-28T06:25:31.433Z,100.00
2023-01-28T06:28:16.293Z,100.00
2023-01-28T06:31:01.656Z,100.00
2023-01-28T06:33:47.294Z,100.00
2023-01-28T06:36:33.096Z,100.00
2023-01-28T06:39:18.044Z,100.00
2023-01-28T06:42:02.928Z,100.00
2023-01-28T06:44:48.063Z,100.00
2023-01-28T06:47:32.972Z,100.00
2023-01-28T06:50:18.497Z,100.00
2023-01-28T06:53:03.410Z,100.00
2023-01-28T06:55:48.807Z,100.00
2023-01-28T06:58:34.646Z,100.00
2023-01-28T07:01:19.528Z,100.00
2023-01-28T07:04:04.799Z,100.00
2023-01-28T07:06:50.057Z,100.00
2023-01-28T07:09:34.970Z,100.00
2023-01-28T07:12:20.282Z,100.00
2023-01-28T07:15:06.081Z,100.00
2023-01-28T07:17:51.427Z,100.00
2023-01-28T07:20:36.628Z,100.00
2023-01-28T07:23:22.857Z,100.00
2023-01-28T07:26:07.868Z,100.00
2023-01-28T07:28:53.120Z,100.00
2023-01-28T07:31:38.316Z,100.00
2023-01-28T07:34:23.459Z,100.00
2023-01-28T07:37:09.874Z,100.00
2023-01-28T07:39:54.818Z,100.00
2023-01-28T07:42:40.302Z,100.00
2023-01-28T07:45:25.527Z,100.00
2023-01-28T07:48:12.811Z,100.00
2023-01-28T07:51:01.561Z,100.00
2023-01-28T07:53:46.873Z,100.00
2023-01-28T07:56:31.865Z,100.00
2023-01-28T07:59:17.074Z,100.00
2023-01-28T08:02:01.962Z,100.00
2023-01-28T08:04:47.540Z,100.00
2023-01-28T08:07:32.734Z,100.00
2023-01-28T08:10:18.619Z,100.00
2023-01-28T08:13:04.137Z,100.00
2023-01-28T08:15:49.268Z,100.00
2023-01-28T08:18:34.456Z,100.00
2023-01-28T08:21:19.357Z,100.00
2023-01-28T08:24:05.076Z,100.00
2023-01-28T08:26:50.069Z,100.00
2023-01-28T08:29:36.508Z,100.00
2023-01-28T08:32:21.577Z,100.00
2023-01-28T08:35:07.804Z,100.00
2023-01-28T08:37:53.910Z,100.00
2023-01-28T08:40:39.332Z,100.00
2023-01-28T08:43:24.454Z,100.00
2023-01-28T08:46:09.573Z,100.00
2023-01-28T08:48:54.641Z,100.00
2023-01-28T08:51:39.664Z,100.00
2023-01-28T08:54:24.809Z,100.00
2023-01-28T08:57:09.798Z,100.00
2023-01-28T08:59:54.902Z,100.00
2023-01-28T09:02:39.850Z,100.00
2023-01-28T09:05:25.078Z,100.00
2023-01-28T09:08:13.324Z,100.00
2023-01-28T09:10:58.976Z,100.00
2023-01-28T09:13:44.208Z,100.00
2023-01-28T09:16:29.128Z,100.00
2023-01-28T09:19:15.768Z,100.00
2023-01-28T09:22:03.081Z,100.00
2023-01-28T09:24:48.454Z,100.00
2023-01-28T09:27:33.952Z,100.00
2023-01-28T09:30:19.201Z,100.00
2023-01-28T09:33:04.577Z,100.00
2023-01-28T09:35:49.344Z,100.00
2023-01-28T09:38:37.122Z,100.00
2023-01-28T09:41:26.405Z,100.00
2023-01-28T09:44:40.610Z,100.00
2023-01-28T09:47:37.775Z,100.00
2023-01-28T09:50:35.004Z,100.00
2023-01-28T09:53:27.555Z,100.00
2023-01-28T09:56:20.775Z,100.00
2023-01-28T09:59:19.413Z,100.00
2023-01-28T10:02:23.081Z,100.00
2023-01-28T10:05:22.749Z,100.00
2023-01-28T10:08:43.301Z,100.00
2023-01-28T10:11:28.391Z,100.00
2023-01-28T10:14:29.031Z,100.00
2023-01-28T10:17:36.790Z,100.00
2023-01-28T10:20:28.945Z,100.00
2023-01-28T10:23:41.378Z,100.00
2023-01-28T10:26:32.914Z,100.00
2023-01-28T10:29:21.706Z,100.00
2023-01-28T10:32:16.369Z,100.00
2023-01-28T10:35:04.599Z,100.00
2023-01-28T10:37:51.185Z,99.18
2023-01-28T10:40:36.870Z,97.82
2023-01-28T10:43:27.088Z,95.66
2023-01-28T10:46:34.168Z,93.91
2023-01-28T10:49:26.458Z,92.22
2023-01-28T10:52:13.479Z,90.67
2023-01-28T10:55:03.915Z,89.24
2023-01-28T10:57:49.268Z,87.90
2023-01-28T11:00:37.697Z,87.04
2023-01-28T11:03:27.320Z,85.30
2023-01-28T11:06:27.121Z,84.56
2023-01-28T11:09:24.269Z,82.80
2023-01-28T11:12:21.318Z,81.73
2023-01-28T11:15:07.048Z,81.73
2023-01-28T11:18:10.191Z,81.10
2023-01-28T11:21:03.323Z,79.93
2023-01-28T11:24:01.456Z,79.19
2023-01-28T11:26:50.795Z,79.01
2023-01-28T11:29:39.813Z,77.51
2023-01-28T11:32:26.616Z,76.16
2023-01-28T11:35:25.352Z,75.32
2023-01-28T11:38:22.731Z,75.32
2023-01-28T11:41:15.726Z,74.72
2023-01-28T11:44:14.487Z,74.39
2023-01-28T11:47:18.151Z,73.70
2023-01-28T11:50:30.216Z,73.33
2023-01-28T11:53:42.682Z,71.95
2023-01-28T11:56:42.540Z,71.94
2023-01-28T11:59:35.931Z,72.19
2023-01-28T12:02:45.695Z,72.49
2023-01-28T12:05:36.660Z,71.93
2023-01-28T12:08:30.411Z,72.11
2023-01-28T12:12:14.163Z,72.17
2023-01-28T12:15:32.591Z,71.49
2023-01-28T12:18:32.807Z,72.23
2023-01-28T12:21:46.679Z,72.12
2023-01-28T12:24:53.547Z,71.88
2023-01-28T12:28:08.447Z,71.93
2023-01-28T12:31:13.819Z,72.17
2023-01-28T12:34:12.187Z,72.42
2023-01-28T12:37:06.462Z,72.25
2023-01-28T12:40:19.805Z,72.39
2023-01-28T12:43:29.079Z,72.60
2023-01-28T12:46:26.252Z,72.36
2023-01-28T12:49:29.956Z,73.05
2023-01-28T12:52:35.366Z,72.99
2023-01-28T12:55:34.340Z,72.84
2023-01-28T12:58:25.185Z,72.73
2023-01-28T13:01:15.602Z,73.37
2023-01-28T13:04:19.833Z,72.61
2023-01-28T13:07:34.242Z,72.72
2023-01-28T13:10:32.598Z,72.79
2023-01-28T13:13:34.919Z,72.64
2023-01-28T13:16:28.587Z,73.08
2023-01-28T13:19:36.736Z,73.12
2023-01-28T13:22:32.262Z,73.64
2023-01-28T13:25:29.359Z,73.22
2023-01-28T13:28:28.484Z,72.48
2023-01-28T13:31:19.044Z,72.22
2023-01-28T13:34:06.624Z,72.62
2023-01-28T13:36:53.466Z,72.61
2023-01-28T13:39:38.659Z,73.00
2023-01-28T13:42:29.699Z,73.35
2023-01-28T13:45:17.912Z,73.38
2023-01-28T13:48:22.785Z,73.02
2023-01-28T13:51:18.962Z,72.38
2023-01-28T13:54:12.659Z,71.84
2023-01-28T13:57:30.646Z,71.95
2023-01-28T14:00:40.568Z,72.62
2023-01-28T14:03:44.382Z,72.69
2023-01-28T14:07:07.831Z,72.35
2023-01-28T14:10:11.395Z,73.31
2023-01-28T14:13:20.610Z,72.67
2023-01-28T14:16:08.701Z,72.19
2023-01-28T14:18:56.406Z,72.23
2023-01-28T14:21:41.561Z,71.85
2023-01-28T14:24:27.262Z,72.23
2023-01-28T14:27:22.445Z,72.58
2023-01-28T14:30:31.262Z,72.34
2023-01-28T14:33:17.634Z,72.43
2023-01-28T14:36:02.889Z,72.54
2023-01-28T14:38:48.695Z,72.06
2023-01-28T14:41:33.737Z,71.42
2023-01-28T14:44:32.399Z,71.40
2023-01-28T14:47:45.191Z,71.73
2023-01-28T14:50:55.109Z,71.58
2023-01-28T14:53:40.017Z,71.19
2023-01-28T14:56:43.278Z,71.31
2023-01-28T14:59:37.159Z,72.05
2023-01-28T15:02:27.007Z,71.97
2023-01-28T15:05:17.458Z,71.54
2023-01-28T15:08:02.372Z,71.96
2023-01-28T15:10:49.379Z,72.06
2023-01-28T15:13:42.607Z,71.69
2023-01-28T15:16:31.373Z,72.37
2023-01-28T15:19:18.187Z,72.69
2023-01-28T15:22:06.256Z,73.11
2023-01-28T15:24:51.559Z,73.48
2023-01-28T15:27:36.551Z,74.06
2023-01-28T15:30:26.971Z,73.48
2023-01-28T15:33:15.333Z,73.24
2023-01-28T15:36:00.670Z,73.37
2023-01-28T15:38:45.514Z,73.34
2023-01-28T15:41:38.108Z,73.86
2023-01-28T15:44:43.432Z,73.97
2023-01-28T15:47:33.420Z,73.81
2023-01-28T15:50:21.767Z,73.53
2023-01-28T15:53:11.308Z,74.04
2023-01-28T15:56:05.023Z,74.20
2023-01-28T15:58:50.170Z,73.62
2023-01-28T16:01:35.529Z,74.48
2023-01-28T16:04:29.059Z,74.77
2023-01-28T16:07:14.116Z,74.71
2023-01-28T16:10:02.431Z,75.18
2023-01-28T16:12:52.946Z,74.97
2023-01-28T16:15:39.337Z,75.18
2023-01-28T16:18:44.013Z,74.82
2023-01-28T16:21:37.180Z,74.89
2023-01-28T16:24:27.779Z,73.99
2023-01-28T16:27:24.988Z,74.72
2023-01-28T16:30:11.699Z,75.51
2023-01-28T16:32:56.871Z,76.25
2023-01-28T16:36:03.536Z,76.56
2023-01-28T16:38:47.211Z,76.84
2023-01-28T16:41:44.147Z,77.35
2023-01-28T16:44:29.176Z,77.68
2023-01-28T16:47:14.005Z,77.68
2023-01-28T16:49:59.047Z,77.63
2023-01-28T16:52:46.156Z,78.02
2023-01-28T16:55:31.112Z,78.07
2023-01-28T16:58:19.239Z,77.70
2023-01-28T17:01:04.215Z,78.32
2023-01-28T17:03:49.249Z,78.53
2023-01-28T17:06:34.384Z,78.25
2023-01-28T17:09:19.539Z,79.36
2023-01-28T17:12:05.003Z,79.77
2023-01-28T17:14:49.765Z,79.85
2023-01-28T17:17:34.803Z,80.72
2023-01-28T17:20:19.810Z,81.51
2023-01-28T17:23:07.021Z,82.56
2023-01-28T17:25:51.967Z,83.72
2023-01-28T17:28:37.159Z,84.04
2023-01-28T17:31:23.052Z,84.25
2023-01-28T17:34:11.318Z,83.94
2023-01-28T17:36:56.365Z,84.00
2023-01-28T17:39:41.519Z,83.81
2023-01-28T17:42:27.514Z,83.74
2023-01-28T17:45:14.303Z,83.85
2023-01-28T17:47:59.725Z,84.62
2023-01-28T17:50:44.925Z,85.40
2023-01-28T17:53:30.002Z,85.93
2023-01-28T17:56:23.987Z,86.10
2023-01-28T17:59:09.798Z,85.95
2023-01-28T18:01:55.337Z,86.02
2023-01-28T18:04:41.937Z,85.63
2023-01-28T18:07:27.124Z,85.46
2023-01-28T18:10:15.500Z,85.43
2023-01-28T18:13:00.439Z,85.05
2023-01-28T18:15:45.602Z,85.37
2023-01-28T18:18:30.530Z,85.82
2023-01-28T18:21:23.199Z,86.71
2023-01-28T18:24:10.180Z,87.29
2023-01-28T18:27:00.014Z,87.58
2023-01-28T18:29:45.306Z,87.90
2023-01-28T18:32:30.399Z,87.80
2023-01-28T18:35:16.271Z,88.38
2023-01-28T18:38:02.655Z,88.83
2023-01-28T18:40:47.839Z,89.29
2023-01-28T18:43:35.384Z,90.02
2023-01-28T18:46:20.936Z,89.93
2023-01-28T18:49:05.809Z,89.68
2023-01-28T18:51:51.023Z,90.20
2023-01-28T18:54:36.753Z,89.95
2023-01-28T18:57:21.717Z,89.99
2023-01-28T19:00:07.591Z,89.79
2023-01-28T19:02:52.796Z,89.35
2023-01-28T19:05:39.451Z,88.98
2023-01-28T19:08:24.368Z,88.71
2023-01-28T19:11:09.769Z,88.69
2023-01-28T19:13:55.129Z,88.66
2023-01-28T19:16:40.481Z,89.20
2023-01-28T19:19:25.949Z,88.79
2023-01-28T19:22:10.895Z,89.29
2023-01-28T19:24:56.403Z,89.68
2023-01-28T19:27:41.361Z,89.37
2023-01-28T19:30:26.777Z,89.43
2023-01-28T19:33:12.598Z,89.73
2023-01-28T19:35:59.406Z,89.34
2023-01-28T19:38:44.988Z,89.61
2023-01-28T19:41:30.358Z,89.78
2023-01-28T19:44:15.322Z,90.23
2023-01-28T19:47:02.251Z,90.29
2023-01-28T19:49:47.447Z,90.23
2023-01-28T19:52:32.801Z,90.24
2023-01-28T19:55:18.219Z,90.30
2023-01-28T19:58:03.829Z,90.94
2023-01-28T20:00:49.097Z,91.39
2023-01-28T20:03:39.040Z,91.49
2023-01-28T20:06:26.391Z,91.85
2023-01-28T20:09:17.191Z,92.41
2023-01-28T20:12:02.274Z,92.25
2023-01-28T20:14:47.456Z,92.39
2023-01-28T20:17:32.887Z,92.52
2023-01-28T20:20:18.339Z,92.36
2023-01-28T20:23:05.668Z,92.45
2023-01-28T20:25:55.029Z,92.61
2023-01-28T20:28:40.071Z,92.38
2023-01-28T20:31:25.273Z,92.41
2023-01-28T20:34:15.461Z,92.60
2023-01-28T20:37:01.132Z,93.28
2023-01-28T20:39:46.127Z,93.38
2023-01-28T20:42:31.311Z,94.01
2023-01-28T20:45:16.890Z,94.03
2023-01-28T20:48:01.973Z,94.28
2023-01-28T20:50:46.876Z,94.12
2023-01-28T20:53:32.500Z,93.83
2023-01-28T20:56:20.107Z,93.95
2023-01-28T20:59:05.981Z,94.04
2023-01-28T21:01:50.966Z,93.84
2023-01-28T21:04:36.117Z,93.57
2023-01-28T21:07:20.963Z,93.56
2023-01-28T21:10:06.475Z,93.79
2023-01-28T21:12:51.443Z,94.13
2023-01-28T21:15:37.074Z,93.97
2023-01-28T21:18:23.094Z,93.58
2023-01-28T21:21:14.828Z,93.40
2023-01-28T21:24:00.464Z,93.58
2023-01-28T21:26:45.525Z,93.61
2023-01-28T21:29:30.429Z,93.39
2023-01-28T21:32:16.412Z,93.60
2023-01-28T21:35:01.416Z,94.26
2023-01-28T21:37:46.972Z,94.52
2023-01-28T21:40:33.851Z,94.89
2023-01-28T21:43:19.056Z,95.45
2023-01-28T21:46:05.046Z,95.86
2023-01-28T21:48:54.105Z,95.93
2023-01-28T21:51:39.764Z,96.36
2023-01-28T21:54:25.554Z,96.78
2023-01-28T21:57:10.587Z,96.51
2023-01-28T21:59:55.606Z,96.31
2023-01-28T22:02:40.694Z,96.67
2023-01-28T22:05:26.158Z,96.62
2023-01-28T22:08:11.360Z,96.54
2023-01-28T22:10:56.756Z,96.32
2023-01-28T22:13:42.643Z,96.58
2023-01-28T22:16:27.467Z,96.96
2023-01-28T22:19:13.887Z,97.46
2023-01-28T22:21:59.212Z,98.09
2023-01-28T22:24:44.651Z,97.92
2023-01-28T22:27:29.847Z,98.06
2023-01-28T22:30:15.338Z,97.82
2023-01-28T22:33:00.773Z,98.15
2023-01-28T22:35:45.810Z,98.11
2023-01-28T22:38:30.710Z,98.13
2023-01-28T22:41:24.966Z,98.02
2023-01-28T22:44:10.003Z,98.44
2023-01-28T22:46:55.156Z,98.37
2023-01-28T22:49:40.580Z,98.92
2023-01-28T22:52:25.713Z,99.19
2023-01-28T22:55:10.802Z,99.89
2023-01-28T22:57:56.158Z,99.84
2023-01-28T23:00:41.448Z,100.00
2023-01-28T23:03:26.955Z,100.00
2023-01-28T23:06:13.456Z,100.00
2023-01-28T23:08:58.349Z,99.60
2023-01-28T23:11:43.767Z,99.35
2023-01-28T23:14:47.373Z,99.97
2023-01-28T23:17:51.230Z,99.85
2023-01-28T23:20:58.124Z,99.30
2023-01-28T23:24:01.986Z,99.79
2023-01-28T23:26:59.892Z,100.00
2023-01-28T23:29:45.171Z,100.00
2023-01-28T23:32:30.288Z,100.00
2023-01-28T23:35:16.461Z,100.00
2023-01-28T23:38:01.481Z,100.00
2023-01-28T23:40:46.297Z,100.00
2023-01-28T23:43:31.308Z,100.00
2023-01-28T23:46:16.874Z,100.00
2023-01-28T23:49:02.017Z,100.00
2023-01-28T23:51:47.328Z,100.00
2023-01-28T23:54:32.891Z,100.00
2023-01-28T23:57:18.797Z,100.00
